Terminal Aerodrome Forecast
Issued by NWS

Home | Current Version | Previous Version | Text Only | Print | Product List | Glossary On
Versions: 1 2 3 4 5 6 7 8 9 10 11 12 13 14 15 16 17 18 19 20
000
FTUS44 KBMX 052300
TAFTOI
TAF
KTOI 052324Z 0600/0624 34012G20KT P6SM -RA OVC012
     FM060330 34010KT P6SM OVC025
     FM060800 35008KT P6SM SKC=

USA.gov is the U.S. government's official web portal to all federal, state and local government web resources and services.